Time;durP1;ratioP1;P1;durP2;ratioP2;P2;SDS_P1;SDS_P2;PMS_P1;PMS_P2;Temp;Humidity;BMP_temperature;BMP_pressure;BME280_temperature;BME280_humidity;BME280_pressure;Samples;Min_cycle;Max_cycle;Signal;HPM_P1;HPM_P2
2022/12/09 00:01:24;;;;;;;24.10;21.07;;;1.80;99.90;;;;;;5104657;27;20446;-82
2022/12/09 00:03:54;;;;;;;25.83;21.27;;;1.80;99.90;;;;;;5064558;28;20077;-82
2022/12/09 00:06:23;;;;;;;22.63;19.53;;;1.80;99.90;;;;;;5101902;28;20071;-82
2022/12/09 00:08:49;;;;;;;25.00;19.97;;;1.90;99.90;;;;;;5082539;28;20464;-82
2022/12/09 00:11:15;;;;;;;25.27;19.95;;;1.90;99.90;;;;;;5085448;28;20100;-82
2022/12/09 00:13:41;;;;;;;23.53;20.17;;;1.90;99.90;;;;;;5096891;28;20357;-81
2022/12/09 00:16:10;;;;;;;22.80;19.83;;;1.80;99.90;;;;;;5103796;28;20044;-81
2022/12/09 00:18:36;;;;;;;24.93;20.13;;;1.80;99.90;;;;;;5083932;28;20071;-81
2022/12/09 00:21:23;;;;;;;22.90;20.10;;;1.80;99.90;;;;;;5102690;28;20676;-81
2022/12/09 00:23:50;;;;;;;24.90;20.17;;;1.80;99.90;;;;;;5086640;28;20128;-81
2022/12/09 00:26:17;;;;;;;23.83;20.90;;;1.80;99.90;;;;;;5103010;27;20063;-81
2022/12/09 00:28:42;;;;;;;26.10;21.37;;;1.90;99.90;;;;;;5085764;28;20050;-81
2022/12/09 00:31:12;;;;;;;26.53;20.83;;;1.80;99.90;;;;;;5083899;28;20047;-81
2022/12/09 00:33:37;;;;;;;26.20;21.77;;;1.90;99.90;;;;;;5103739;28;20051;-82
2022/12/09 00:36:09;;;;;;;26.07;20.87;;;1.90;99.90;;;;;;5067710;28;20050;-81
2022/12/09 00:38:35;;;;;;;25.47;21.63;;;1.80;99.90;;;;;;5087685;28;20043;-82
2022/12/09 00:41:01;;;;;;;25.13;21.40;;;1.80;99.90;;;;;;5095307;28;20036;-81
2022/12/09 00:43:27;;;;;;;26.07;22.67;;;1.80;99.90;;;;;;5085604;28;20393;-81
2022/12/09 00:45:53;;;;;;;27.10;22.37;;;1.80;99.90;;;;;;5101303;28;20043;-81
2022/12/09 00:48:19;;;;;;;25.27;21.43;;;1.80;99.90;;;;;;5082147;28;20822;-81
2022/12/09 00:50:45;;;;;;;30.00;23.67;;;1.80;99.90;;;;;;5096919;28;20073;-81
2022/12/09 00:53:11;;;;;;;26.43;21.43;;;1.80;99.90;;;;;;5100775;27;20059;-81
2022/12/09 00:55:37;;;;;;;31.70;23.23;;;1.70;99.90;;;;;;5098553;28;20043;-82
2022/12/09 00:58:03;;;;;;;27.17;22.17;;;1.70;99.90;;;;;;5053370;28;20677;-82
2022/12/09 01:00:32;;;;;;;29.20;24.03;;;1.70;99.90;;;;;;5088107;28;20476;-82
2022/12/09 01:02:58;;;;;;;28.87;22.63;;;1.60;99.90;;;;;;5093384;28;20044;-82
2022/12/09 01:05:24;;;;;;;31.27;20.93;;;1.50;99.90;;;;;;5103737;28;20089;-83
2022/12/09 01:07:50;;;;;;;33.10;24.00;;;1.60;99.90;;;;;;5085578;28;20660;-82
2022/12/09 01:10:15;;;;;;;39.80;25.17;;;1.40;99.90;;;;;;5086275;28;20061;-83
2022/12/09 01:12:42;;;;;;;25.97;20.27;;;1.40;99.90;;;;;;5061603;28;20078;-83
2022/12/09 01:15:09;;;;;;;41.10;26.70;;;1.40;99.90;;;;;;5069108;28;20950;-82
2022/12/09 01:17:39;;;;;;;42.67;26.20;;;1.30;99.90;;;;;;5099577;28;20059;-83
2022/12/09 01:20:08;;;;;;;26.77;21.85;;;1.20;99.90;;;;;;5048745;28;20068;-83
2022/12/09 01:22:35;;;;;;;29.53;22.93;;;1.10;99.90;;;;;;5082468;28;20489;-83
2022/12/09 01:25:01;;;;;;;31.20;22.70;;;1.10;99.90;;;;;;5103948;27;20046;-82
2022/12/09 01:27:29;;;;;;;32.27;24.63;;;1.10;99.90;;;;;;5099328;28;20035;-83
2022/12/09 01:29:55;;;;;;;44.60;27.53;;;1.00;99.90;;;;;;5100200;28;20043;-83
2022/12/09 01:32:21;;;;;;;32.87;24.20;;;1.00;99.90;;;;;;5081964;28;20048;-83
2022/12/09 01:34:47;;;;;;;26.90;22.70;;;1.00;99.90;;;;;;5086808;28;20040;-83
2022/12/09 01:37:13;;;;;;;29.20;23.27;;;0.90;99.90;;;;;;5083695;28;20051;-83
2022/12/09 01:39:40;;;;;;;29.73;23.73;;;0.90;99.90;;;;;;5080210;28;20134;-83
2022/12/09 01:42:09;;;;;;;30.80;22.57;;;0.90;99.90;;;;;;5084120;28;20067;-83
2022/12/09 01:44:35;;;;;;;30.00;23.37;;;0.90;99.90;;;;;;5100939;27;20043;-83
2022/12/09 01:47:01;;;;;;;40.30;25.60;;;1.00;99.90;;;;;;5083557;28;20438;-83
2022/12/09 01:49:45;;;;;;;31.63;23.73;;;1.00;99.90;;;;;;5084456;28;20122;-83
2022/12/09 01:52:18;;;;;;;32.30;24.03;;;1.00;99.90;;;;;;5078276;28;20134;-83
2022/12/09 01:54:45;;;;;;;31.07;24.57;;;1.00;99.90;;;;;;5093817;28;20051;-83
2022/12/09 01:57:11;;;;;;;30.07;22.73;;;1.00;99.90;;;;;;5095657;28;20063;-82
2022/12/09 01:59:37;;;;;;;46.03;40.47;;;1.00;99.90;;;;;;5083008;28;20478;-82
2022/12/09 02:02:06;;;;;;;47.80;31.47;;;0.90;99.90;;;;;;5098976;27;20603;-82
2022/12/09 02:04:39;;;;;;;50.33;36.87;;;1.00;99.90;;;;;;5101480;28;20031;-82
2022/12/09 02:07:08;;;;;;;55.13;36.77;;;1.00;99.90;;;;;;5082013;28;20066;-83
2022/12/09 02:09:34;;;;;;;50.93;36.03;;;0.90;99.90;;;;;;5081583;28;20036;-85
2022/12/09 02:12:11;;;;;;;40.40;30.07;;;0.90;99.90;;;;;;5099291;28;20482;-82
2022/12/09 02:14:42;;;;;;;36.77;27.53;;;0.90;99.90;;;;;;5100436;28;20047;-83
2022/12/09 02:17:34;;;;;;;37.73;26.57;;;0.90;99.90;;;;;;5097739;28;20055;-83
2022/12/09 02:20:18;;;;;;;33.07;23.50;;;0.90;99.90;;;;;;5060023;28;20490;-82
2022/12/09 02:23:14;;;;;;;92.30;33.10;;;0.80;99.90;;;;;;5082565;28;20150;-82
2022/12/09 02:25:47;;;;;;;35.57;25.30;;;0.80;99.90;;;;;;5076495;28;20042;-82
2022/12/09 02:28:16;;;;;;;;;;;0.80;99.90;;;;;;5095221;28;20121;-83
2022/12/09 02:31:00;;;;;;;36.07;25.27;;;0.80;99.90;;;;;;5097968;28;20032;-83
2022/12/09 02:33:51;;;;;;;36.50;25.07;;;0.70;99.90;;;;;;5096245;28;20081;-72
2022/12/09 02:36:17;;;;;;;;;;;0.80;99.90;;;;;;5085745;28;20043;-73
2022/12/09 02:38:43;;;;;;;34.30;23.47;;;0.70;99.90;;;;;;5099309;28;20026;-73
2022/12/09 02:41:18;;;;;;;41.67;26.93;;;0.70;99.90;;;;;;5083726;28;20130;-72
2022/12/09 02:43:52;;;;;;;41.93;26.53;;;0.80;99.90;;;;;;5081423;28;20050;-73
2022/12/09 02:46:20;;;;;;;52.87;31.77;;;0.80;99.90;;;;;;5098391;28;20044;-73
2022/12/09 02:48:53;;;;;;;44.47;29.37;;;0.80;99.90;;;;;;5078825;28;20147;-73
2022/12/09 02:51:21;;;;;;;49.43;29.20;;;0.80;99.90;;;;;;5113315;27;20437;-72
2022/12/09 02:53:50;;;;;;;37.27;25.47;;;0.70;99.90;;;;;;5085452;28;20043;-73
2022/12/09 02:56:18;;;;;;;105.95;36.05;;;0.70;99.90;;;;;;5081053;28;20055;-73
2022/12/09 02:58:44;;;;;;;47.17;28.00;;;0.70;99.90;;;;;;5079341;28;20043;-82
2022/12/09 03:02:09;;;;;;;34.67;24.57;;;0.70;99.90;;;;;;5062080;28;20086;-83
2022/12/09 03:04:39;;;;;;;39.33;27.23;;;0.80;99.90;;;;;;5016726;28;20045;-82
2022/12/09 03:07:27;;;;;;;37.17;25.30;;;0.80;99.90;;;;;;5044319;28;20056;-85
2022/12/09 03:10:03;;;;;;;37.23;25.20;;;0.70;99.90;;;;;;5069115;28;20144;-84
2022/12/09 03:12:32;;;;;;;46.07;27.53;;;0.70;99.90;;;;;;5090079;28;20044;-84
2022/12/09 03:14:59;;;;;;;44.13;27.80;;;0.70;99.90;;;;;;5102070;28;20564;-84
2022/12/09 03:17:34;;;;;;;55.40;30.10;;;0.70;99.90;;;;;;5074496;28;20073;-85
2022/12/09 03:20:20;;;;;;;38.57;28.07;;;0.70;99.90;;;;;;5100516;28;20155;-85
2022/12/09 03:22:48;;;;;;;139.40;39.50;;;0.70;99.90;;;;;;5095295;28;20596;-85
2022/12/09 03:25:22;;;;;;;62.37;29.17;;;0.60;99.90;;;;;;5067124;28;20031;-85
2022/12/09 03:28:12;;;;;;;36.23;25.57;;;0.60;99.90;;;;;;5093696;28;20051;-84
2022/12/09 03:30:42;;;;;;;48.33;27.30;;;0.60;99.90;;;;;;5094708;28;20381;-85
2022/12/09 03:33:10;;;;;;;36.37;25.43;;;0.50;99.90;;;;;;5083558;28;20047;-85
2022/12/09 03:35:40;;;;;;;46.07;28.27;;;0.50;99.90;;;;;;5100767;28;20563;-84
2022/12/09 03:38:09;;;;;;;39.55;26.95;;;0.50;99.90;;;;;;5097384;28;20056;-84
2022/12/09 03:40:36;;;;;;;42.73;26.57;;;0.50;99.90;;;;;;5096396;28;20043;-84
2022/12/09 03:43:13;;;;;;;52.63;29.57;;;0.50;99.90;;;;;;5079622;28;20905;-84
2022/12/09 03:45:39;;;;;;;49.53;28.93;;;0.50;99.90;;;;;;5099587;28;20690;-85
2022/12/09 03:48:06;;;;;;;42.83;27.50;;;0.40;99.90;;;;;;5087998;28;20067;-85
2022/12/09 03:50:40;;;;;;;47.53;28.60;;;0.40;99.90;;;;;;5098008;28;20126;-84
2022/12/09 03:53:14;;;;;;;93.87;35.70;;;0.40;99.90;;;;;;5098542;28;20514;-84
2022/12/09 03:56:21;;;;;;;42.00;26.67;;;0.30;99.90;;;;;;5102751;28;20035;-85
2022/12/09 03:58:50;;;;;;;36.00;26.23;;;0.30;99.90;;;;;;5100102;28;20391;-85
2022/12/09 04:01:18;;;;;;;38.67;26.42;;;0.20;99.90;;;;;;5109139;28;20058;-84
2022/12/09 04:03:46;;;;;;;41.03;28.33;;;0.20;99.90;;;;;;5078786;28;20045;-85
2022/12/09 04:06:15;;;;;;;48.17;30.10;;;0.20;99.90;;;;;;5081390;28;20039;-85
2022/12/09 04:08:41;;;;;;;43.83;29.53;;;0.10;99.90;;;;;;5081014;28;20044;-85
2022/12/09 04:11:07;;;;;;;37.40;26.67;;;0.00;99.90;;;;;;5064235;28;20035;-86
2022/12/09 04:13:33;;;;;;;45.20;29.53;;;0.10;99.90;;;;;;5082143;28;20047;-85
2022/12/09 04:16:02;;;;;;;66.73;31.40;;;0.00;99.90;;;;;;5063744;28;20788;-83
2022/12/09 04:18:28;;;;;;;32.65;24.58;;;0.00;99.90;;;;;;5078813;28;20130;-84
2022/12/09 04:20:54;;;;;;;36.80;26.10;;;-0.10;99.90;;;;;;5051435;28;20032;-84
2022/12/09 04:23:20;;;;;;;35.03;25.13;;;-0.10;99.90;;;;;;5083683;28;21019;-83
2022/12/09 04:25:46;;;;;;;34.07;24.83;;;-0.10;99.90;;;;;;5085134;28;20063;-83
2022/12/09 04:28:12;;;;;;;41.87;27.27;;;-0.10;99.90;;;;;;5086766;28;20038;-83
2022/12/09 04:30:37;;;;;;;41.93;28.37;;;-0.20;99.90;;;;;;5051401;28;20051;-83
2022/12/09 04:33:03;;;;;;;41.03;27.53;;;-0.20;99.90;;;;;;5103739;28;20066;-83
2022/12/09 04:35:29;;;;;;;41.23;27.90;;;-0.20;99.90;;;;;;5081706;28;20059;-84
2022/12/09 04:37:55;;;;;;;47.10;28.73;;;-0.20;99.90;;;;;;5085533;28;20356;-84
2022/12/09 04:40:20;;;;;;;49.03;29.03;;;-0.20;99.90;;;;;;5082248;28;20036;-83
2022/12/09 04:42:46;;;;;;;64.57;33.60;;;-0.30;99.90;;;;;;5087233;28;20114;-83
2022/12/09 04:45:12;;;;;;;36.23;25.70;;;-0.30;99.90;;;;;;5067751;28;20040;-84
2022/12/09 04:47:37;;;;;;;36.60;26.67;;;-0.40;99.90;;;;;;5086892;28;20039;-83
2022/12/09 04:50:04;;;;;;;38.07;26.37;;;-0.40;99.90;;;;;;5086897;27;20471;-83
2022/12/09 04:52:30;;;;;;;53.97;31.47;;;-0.50;99.90;;;;;;5105209;28;20046;-83
2022/12/09 04:54:56;;;;;;;47.07;30.20;;;-0.40;99.90;;;;;;5069256;28;20036;-83
2022/12/09 04:57:22;;;;;;;66.10;33.47;;;-0.50;99.90;;;;;;5098990;28;20036;-83
2022/12/09 04:59:48;;;;;;;37.60;26.77;;;-0.50;99.90;;;;;;5085660;28;20047;-83
2022/12/09 05:02:13;;;;;;;42.97;29.00;;;-0.50;99.90;;;;;;5077258;28;20066;-83
2022/12/09 05:04:45;;;;;;;50.67;29.93;;;-0.50;99.90;;;;;;5067914;28;20572;-83
2022/12/09 05:07:11;;;;;;;49.07;31.47;;;-0.50;99.90;;;;;;5065357;28;20052;-83
2022/12/09 05:09:37;;;;;;;49.00;30.67;;;-0.50;99.90;;;;;;5062410;28;20036;-83
2022/12/09 05:12:03;;;;;;;43.67;29.03;;;-0.50;99.90;;;;;;5098873;27;20086;-83
2022/12/09 05:14:32;;;;;;;46.47;29.23;;;-0.60;99.90;;;;;;5091790;28;20063;-82
2022/12/09 05:16:58;;;;;;;46.60;28.37;;;-0.50;99.90;;;;;;5055185;28;20471;-83
2022/12/09 05:19:24;;;;;;;41.07;26.53;;;-0.60;99.90;;;;;;5113646;27;20076;-83
2022/12/09 05:21:49;;;;;;;34.93;25.57;;;-0.70;99.90;;;;;;5074907;28;20093;-81
2022/12/09 05:24:15;;;;;;;46.60;28.47;;;-0.70;99.90;;;;;;5085804;28;20346;-81
2022/12/09 05:26:41;;;;;;;46.00;30.03;;;-0.80;99.90;;;;;;5077518;28;20455;-81
2022/12/09 05:29:07;;;;;;;37.97;26.73;;;-0.80;99.90;;;;;;5069122;28;20044;-82
2022/12/09 05:31:32;;;;;;;51.50;32.17;;;-0.80;99.90;;;;;;5082583;28;20044;-81
2022/12/09 05:34:01;;;;;;;49.93;29.43;;;-0.80;99.90;;;;;;5068029;28;20081;-81
2022/12/09 05:36:27;;;;;;;33.40;25.70;;;-0.90;99.90;;;;;;5075371;28;20051;-81
2022/12/09 05:38:54;;;;;;;47.37;30.33;;;-0.80;99.90;;;;;;5064678;28;20113;-81
2022/12/09 05:41:21;;;;;;;40.90;29.13;;;-0.80;99.90;;;;;;5087476;28;20036;-81
2022/12/09 05:43:47;;;;;;;43.37;29.77;;;-0.90;99.90;;;;;;5079082;28;20048;-81
2022/12/09 05:46:16;;;;;;;45.10;29.57;;;-0.90;99.90;;;;;;5084286;28;20040;-81
2022/12/09 05:48:43;;;;;;;39.70;28.43;;;-0.90;99.90;;;;;;5077720;28;20028;-80
2022/12/09 05:51:20;;;;;;;34.73;26.90;;;-0.90;99.90;;;;;;5094591;28;20055;-80
2022/12/09 05:53:45;;;;;;;37.30;27.00;;;-0.90;99.90;;;;;;5094332;28;20488;-80
2022/12/09 05:56:15;;;;;;;36.50;26.90;;;-0.90;99.90;;;;;;5095221;28;20040;-82
2022/12/09 05:58:40;;;;;;;38.13;25.67;;;-0.90;99.90;;;;;;5080098;28;20377;-81
2022/12/09 06:01:07;;;;;;;37.10;26.93;;;-0.90;99.90;;;;;;5058815;28;20168;-81
2022/12/09 06:03:33;;;;;;;60.40;32.73;;;-1.00;99.90;;;;;;5077456;28;20063;-80
2022/12/09 06:06:08;;;;;;;64.60;34.70;;;-1.00;99.90;;;;;;5098905;28;20221;-81
2022/12/09 06:08:34;;;;;;;49.80;30.23;;;-1.00;99.90;;;;;;5097596;28;20059;-81
2022/12/09 06:10:59;;;;;;;40.63;26.73;;;-1.10;99.90;;;;;;5079507;28;20048;-81
2022/12/09 06:13:25;;;;;;;39.40;27.97;;;-1.10;99.90;;;;;;5095837;27;20043;-81
2022/12/09 06:15:52;;;;;;;35.60;26.03;;;-1.20;99.90;;;;;;5047716;28;20083;-81
2022/12/09 06:18:17;;;;;;;40.50;28.60;;;-1.20;99.90;;;;;;5085100;27;20067;-81
2022/12/09 06:20:43;;;;;;;42.83;30.60;;;-1.20;99.90;;;;;;5047024;28;20043;-81
2022/12/09 06:23:09;;;;;;;42.83;30.60;;;-1.20;99.90;;;;;;5098218;28;20047;-81
2022/12/09 06:25:35;;;;;;;43.20;29.20;;;-1.20;99.90;;;;;;5083097;28;20123;-81
2022/12/09 06:28:01;;;;;;;43.03;30.43;;;-1.10;99.90;;;;;;5081485;28;20047;-81
2022/12/09 06:30:27;;;;;;;53.17;33.73;;;-1.10;99.90;;;;;;5065644;28;20036;-81
2022/12/09 06:32:53;;;;;;;52.57;33.13;;;-1.10;99.90;;;;;;5096505;28;20051;-80
2022/12/09 06:35:19;;;;;;;40.10;29.43;;;-1.10;99.90;;;;;;5067729;28;20440;-81
2022/12/09 06:37:44;;;;;;;37.47;27.87;;;-1.10;99.90;;;;;;5099243;27;20515;-80
2022/12/09 06:40:10;;;;;;;40.67;28.40;;;-1.10;99.90;;;;;;5066503;28;20793;-80
2022/12/09 06:42:36;;;;;;;54.97;33.00;;;-1.20;99.90;;;;;;5085075;28;20047;-80
2022/12/09 06:45:03;;;;;;;34.93;26.40;;;-1.20;99.90;;;;;;5064109;28;20032;-80
2022/12/09 06:47:29;;;;;;;36.93;27.43;;;-1.30;99.90;;;;;;5084207;28;20043;-80
2022/12/09 06:49:56;;;;;;;59.90;33.93;;;-1.30;99.90;;;;;;5058767;28;20043;-81
2022/12/09 06:52:22;;;;;;;48.77;31.00;;;-1.30;99.90;;;;;;5095577;28;20524;-79
2022/12/09 06:54:48;;;;;;;37.43;28.00;;;-1.30;99.90;;;;;;5061102;28;21230;-80
2022/12/09 06:57:14;;;;;;;35.73;27.47;;;-1.40;99.90;;;;;;5075486;28;20055;-80
2022/12/09 06:59:40;;;;;;;38.13;28.90;;;-1.40;99.90;;;;;;5094770;28;20082;-79
2022/12/09 07:02:08;;;;;;;36.63;27.33;;;-1.40;99.90;;;;;;5093096;28;20110;-79
2022/12/09 07:04:33;;;;;;;49.47;31.77;;;-1.40;99.90;;;;;;5084841;28;20542;-79
2022/12/09 07:06:59;;;;;;;37.50;27.93;;;-1.40;99.90;;;;;;5059742;28;20044;-79
2022/12/09 07:09:25;;;;;;;39.40;29.17;;;-1.50;99.90;;;;;;5083249;28;20039;-79
2022/12/09 07:11:51;;;;;;;45.30;30.60;;;-1.50;99.90;;;;;;5080767;28;20506;-79
2022/12/09 07:14:17;;;;;;;42.10;29.33;;;-1.50;99.90;;;;;;5079053;28;20047;-79
2022/12/09 07:16:43;;;;;;;44.70;32.03;;;-1.40;99.90;;;;;;5091443;28;20079;-81
2022/12/09 07:19:18;;;;;;;42.30;30.37;;;-1.40;99.90;;;;;;5077905;28;20895;-81
2022/12/09 07:21:44;;;;;;;37.87;26.70;;;-1.40;99.90;;;;;;5097592;28;20114;-81
2022/12/09 07:24:11;;;;;;;46.00;31.60;;;-1.30;99.90;;;;;;5097787;28;20138;-80
2022/12/09 07:26:37;;;;;;;62.57;36.10;;;-1.30;99.90;;;;;;5062977;28;20517;-79
2022/12/09 07:29:04;;;;;;;50.23;33.00;;;-1.30;99.90;;;;;;5099857;28;20043;-79
2022/12/09 07:31:30;;;;;;;48.47;32.87;;;-1.30;99.90;;;;;;5092104;28;20051;-79
2022/12/09 07:33:57;;;;;;;43.90;31.73;;;-1.30;99.90;;;;;;5082010;28;20043;-79
2022/12/09 07:36:24;;;;;;;54.10;35.67;;;-1.30;99.90;;;;;;5079927;28;20044;-79
2022/12/09 07:39:01;;;;;;;59.63;35.77;;;-1.30;99.90;;;;;;5078132;28;20036;-79
2022/12/09 07:41:27;;;;;;;55.37;36.43;;;-1.30;99.90;;;;;;5098664;28;20058;-79
2022/12/09 07:43:53;;;;;;;57.17;37.43;;;-1.30;99.90;;;;;;5084531;28;20455;-80
2022/12/09 07:46:21;;;;;;;61.30;38.80;;;-1.20;99.90;;;;;;5094745;28;20126;-79
2022/12/09 07:48:47;;;;;;;66.33;40.63;;;-1.20;99.90;;;;;;5100319;28;20127;-80
2022/12/09 07:51:13;;;;;;;65.97;41.57;;;-1.10;99.90;;;;;;5095971;28;20510;-79
2022/12/09 07:53:39;;;;;;;65.20;40.20;;;-1.00;99.90;;;;;;5066341;28;20558;-80
2022/12/09 07:56:07;;;;;;;59.53;39.03;;;-1.00;99.90;;;;;;5093412;28;20044;-80
2022/12/09 07:58:34;;;;;;;61.30;39.90;;;-1.00;99.90;;;;;;5054059;28;20122;-80
2022/12/09 08:01:08;;;;;;;67.33;42.47;;;-1.00;99.90;;;;;;5070111;28;20050;-79
2022/12/09 08:03:34;;;;;;;72.17;43.87;;;-1.00;99.90;;;;;;5096476;28;20036;-80
2022/12/09 08:06:00;;;;;;;67.27;42.47;;;-0.90;99.90;;;;;;5089090;28;20356;-79
2022/12/09 08:08:26;;;;;;;79.77;45.63;;;-0.90;99.90;;;;;;5096718;28;20048;-80
2022/12/09 08:10:53;;;;;;;84.90;46.57;;;-0.80;99.90;;;;;;5084288;28;20394;-80
2022/12/09 08:13:19;;;;;;;82.90;49.30;;;-0.80;99.90;;;;;;5080980;28;20614;-80
2022/12/09 08:15:46;;;;;;;103.93;53.50;;;-0.80;99.90;;;;;;5099116;28;20379;-80
2022/12/09 08:18:11;;;;;;;82.00;47.73;;;-0.70;99.90;;;;;;5070663;28;20047;-80
2022/12/09 08:20:38;;;;;;;80.10;47.50;;;-0.70;99.90;;;;;;5103635;28;20494;-79
2022/12/09 08:23:04;;;;;;;91.37;52.40;;;-0.60;99.90;;;;;;5088723;28;20048;-79
2022/12/09 08:25:30;;;;;;;108.13;54.27;;;-0.70;99.90;;;;;;5099048;28;20555;-80
2022/12/09 08:27:55;;;;;;;86.13;48.50;;;-0.60;99.90;;;;;;5066174;28;20493;-80
2022/12/09 08:30:21;;;;;;;90.73;50.30;;;-0.60;99.90;;;;;;5068393;28;20036;-80
2022/12/09 08:32:47;;;;;;;92.47;48.97;;;-0.60;99.90;;;;;;5104807;28;20429;-80
2022/12/09 08:35:13;;;;;;;84.60;45.03;;;-0.60;99.90;;;;;;5051438;28;20032;-80
2022/12/09 08:37:45;;;;;;;87.53;46.97;;;-0.60;99.90;;;;;;5104563;28;20040;-80
2022/12/09 08:40:11;;;;;;;88.17;48.07;;;-0.60;99.90;;;;;;5078665;28;20051;-79
2022/12/09 08:42:37;;;;;;;72.77;45.00;;;-0.60;99.90;;;;;;5079921;28;20034;-78
2022/12/09 08:45:03;;;;;;;77.50;47.37;;;-0.50;99.90;;;;;;5062038;28;20032;-78
2022/12/09 08:47:29;;;;;;;116.33;55.50;;;-0.50;99.90;;;;;;5084121;28;20293;-79
2022/12/09 08:49:55;;;;;;;337.27;81.47;;;-0.40;99.90;;;;;;5091943;28;20051;-79
2022/12/09 08:52:21;;;;;;;493.80;93.20;;;-0.30;99.90;;;;;;5070516;28;20047;-79
2022/12/09 08:54:47;;;;;;;672.87;112.33;;;-0.20;99.90;;;;;;5090492;28;20046;-80
2022/12/09 08:57:13;;;;;;;188.30;68.53;;;-0.20;99.90;;;;;;5054359;28;20517;-80
2022/12/09 08:59:38;;;;;;;355.07;79.90;;;-0.10;99.90;;;;;;5101608;27;20372;-79
2022/12/09 09:02:04;;;;;;;511.73;91.10;;;0.00;99.90;;;;;;5087481;27;21038;-79
2022/12/09 09:04:30;;;;;;;743.47;117.40;;;0.10;99.90;;;;;;5096688;28;20720;-79
2022/12/09 09:06:56;;;;;;;881.67;130.20;;;0.10;99.90;;;;;;5078117;28;20557;-80
2022/12/09 09:09:22;;;;;;;358.80;82.50;;;0.20;99.90;;;;;;5072362;28;20047;-79
2022/12/09 09:11:48;;;;;;;399.67;91.30;;;0.20;99.90;;;;;;5073397;28;20044;-79
2022/12/09 09:14:14;;;;;;;718.63;126.57;;;0.20;99.90;;;;;;5064393;28;20119;-79
2022/12/09 09:16:42;;;;;;;623.17;107.07;;;0.30;99.90;;;;;;5086528;28;20062;-80
2022/12/09 09:19:16;;;;;;;613.67;106.20;;;0.40;99.90;;;;;;5055148;28;20294;-79
2022/12/09 09:21:42;;;;;;;693.97;123.60;;;0.40;99.90;;;;;;5082569;28;20039;-79
2022/12/09 09:24:14;;;;;;;304.37;80.03;;;0.40;99.90;;;;;;5095915;28;20066;-79
2022/12/09 09:26:41;;;;;;;242.27;73.20;;;0.40;99.90;;;;;;5089965;28;20044;-80
2022/12/09 09:29:09;;;;;;;375.47;89.07;;;0.40;99.90;;;;;;5088100;28;20052;-80
2022/12/09 09:31:35;;;;;;;530.17;97.17;;;0.50;99.90;;;;;;5064008;28;20341;-79
2022/12/09 09:34:00;;;;;;;625.17;106.20;;;0.40;99.90;;;;;;5090381;28;20062;-78
2022/12/09 09:36:26;;;;;;;421.90;98.57;;;0.50;99.90;;;;;;5101074;27;20069;-80
2022/12/09 09:38:53;;;;;;;159.47;63.80;;;0.50;99.90;;;;;;5106162;27;20276;-79
2022/12/09 09:41:44;;;;;;;145.97;63.83;;;0.50;99.90;;;;;;5086829;28;20097;-79
2022/12/09 09:44:33;;;;;;;189.43;68.15;;;0.50;99.90;;;;;;5072805;28;20574;-79
2022/12/09 09:47:00;;;;;;;232.63;73.97;;;0.60;99.90;;;;;;5077540;28;20040;-78
2022/12/09 09:49:33;;;;;;;249.53;76.30;;;0.60;99.90;;;;;;5085269;28;20124;-78
2022/12/09 09:52:05;;;;;;;488.30;99.07;;;0.60;99.90;;;;;;5071341;28;20048;-78
2022/12/09 09:54:31;;;;;;;179.67;65.13;;;0.60;99.90;;;;;;5076285;28;20075;-77
2022/12/09 09:57:17;;;;;;;510.07;96.90;;;0.60;99.90;;;;;;5079000;28;20134;-77
2022/12/09 10:00:03;;;;;;;522.63;98.10;;;0.60;99.90;;;;;;5094460;28;20051;-78
2022/12/09 10:02:39;;;;;;;664.27;113.93;;;0.60;99.90;;;;;;5086201;28;20040;-77
2022/12/09 10:05:25;;;;;;;558.73;106.67;;;0.60;99.90;;;;;;5107509;27;20040;-78
2022/12/09 10:07:55;;;;;;;576.30;108.33;;;0.60;99.90;;;;;;5075221;28;20085;-78
2022/12/09 10:10:33;;;;;;;585.92;107.20;;;0.50;99.90;;;;;;5097665;28;20390;-77
2022/12/09 10:13:07;;;;;;;235.03;64.17;;;0.50;99.90;;;;;;5106808;27;20048;-77
2022/12/09 10:15:41;;;;;;;460.60;85.70;;;0.50;99.90;;;;;;5082994;28;20663;-77
2022/12/09 10:18:09;;;;;;;231.37;71.73;;;0.60;99.90;;;;;;5088106;28;20066;-77
2022/12/09 10:20:36;;;;;;;306.37;72.23;;;0.50;99.90;;;;;;5088309;27;20563;-77
2022/12/09 10:23:10;;;;;;;425.80;91.53;;;0.50;99.90;;;;;;5075157;28;20076;-77
2022/12/09 10:25:42;;;;;;;506.63;101.53;;;0.60;99.90;;;;;;5102727;27;20332;-77
2022/12/09 10:28:22;;;;;;;178.30;60.43;;;0.60;99.90;;;;;;5098807;28;20074;-77
2022/12/09 10:30:52;;;;;;;429.80;84.07;;;0.60;99.90;;;;;;5073928;28;20054;-77
2022/12/09 10:33:21;;;;;;;;;;;0.60;99.90;;;;;;5072024;28;20166;-77
2022/12/09 10:35:47;;;;;;;529.37;99.97;;;0.60;99.90;;;;;;5088845;28;20424;-77
2022/12/09 10:38:15;;;;;;;441.93;91.20;;;0.70;99.90;;;;;;5086265;28;20052;-77
2022/12/09 10:40:44;;;;;;;199.60;66.77;;;0.70;99.90;;;;;;5097857;27;20670;-77
2022/12/09 10:43:39;;;;;;;179.67;69.17;;;0.70;99.90;;;;;;5081374;28;20052;-77
2022/12/09 10:46:14;;;;;;;205.47;72.23;;;0.70;99.90;;;;;;5077882;28;20135;-77
2022/12/09 10:48:45;;;;;;;190.93;69.50;;;0.70;99.90;;;;;;5088361;28;20071;-77
2022/12/09 10:51:19;;;;;;;;;;;0.70;99.90;;;;;;5078735;28;20083;-78
2022/12/09 10:53:48;;;;;;;412.93;91.47;;;0.70;99.90;;;;;;5080871;28;19964;-78
2022/12/09 10:56:23;;;;;;;588.30;109.53;;;0.70;99.90;;;;;;5084844;28;20044;-78
2022/12/09 10:59:16;;;;;;;258.27;72.00;;;0.80;99.90;;;;;;5100674;27;20047;-78
2022/12/09 11:01:50;;;;;;;156.87;62.77;;;0.80;99.90;;;;;;5088277;28;20368;-78
2022/12/09 11:04:31;;;;;;;252.43;77.50;;;0.80;99.90;;;;;;5086911;28;20046;-78
2022/12/09 11:07:02;;;;;;;119.07;59.60;;;0.80;99.90;;;;;;5103010;27;20624;-77
2022/12/09 11:09:33;;;;;;;238.05;74.22;;;0.80;99.90;;;;;;5090484;28;20047;-77
2022/12/09 11:12:25;;;;;;;153.57;65.80;;;0.80;99.90;;;;;;5078225;28;20677;-78
2022/12/09 11:14:55;;;;;;;169.47;69.30;;;0.80;99.90;;;;;;5089991;28;20081;-77
2022/12/09 11:17:26;;;;;;;;;;;0.80;99.90;;;;;;5084527;27;20074;-77
2022/12/09 11:20:04;;;;;;;229.75;76.43;;;0.80;99.90;;;;;;5076757;28;19919;-77
2022/12/09 11:22:39;;;;;;;160.47;67.73;;;0.80;99.90;;;;;;5113984;27;20553;-77
2022/12/09 11:25:11;;;;;;;170.90;67.53;;;0.80;99.90;;;;;;5090435;28;20076;-77
2022/12/09 11:27:46;;;;;;;184.33;69.17;;;0.90;99.90;;;;;;5097258;28;20036;-77
2022/12/09 11:30:14;;;;;;;251.67;74.23;;;0.80;99.90;;;;;;5084133;28;20395;-77
2022/12/09 11:32:59;;;;;;;193.27;69.73;;;0.80;99.90;;;;;;5088647;28;20032;-77
2022/12/09 11:35:29;;;;;;;179.80;66.90;;;0.80;99.90;;;;;;5074418;28;20067;-77
2022/12/09 11:37:56;;;;;;;;;;;0.90;99.90;;;;;;5098626;28;20081;-77
2022/12/09 11:40:24;;;;;;;247.57;75.40;;;0.70;99.90;;;;;;5078394;28;20332;-77
2022/12/09 11:42:51;;;;;;;331.80;86.17;;;0.80;99.90;;;;;;5093412;28;20525;-77
2022/12/09 11:45:36;;;;;;;136.70;64.83;;;0.80;99.90;;;;;;5103385;28;20201;-77
2022/12/09 11:48:26;;;;;;;160.83;67.33;;;0.80;99.90;;;;;;5109077;27;20481;-77
2022/12/09 11:50:52;;;;;;;173.97;67.47;;;0.90;99.90;;;;;;5076760;28;20546;-77
2022/12/09 11:53:28;;;;;;;119.10;59.67;;;0.90;99.90;;;;;;5070795;28;20351;-73
2022/12/09 11:56:28;;;;;;;113.47;59.57;;;0.90;99.90;;;;;;5113713;27;20035;-73
2022/12/09 11:59:04;;;;;;;112.53;59.05;;;1.00;99.90;;;;;;5075818;28;20482;-73
2022/12/09 12:02:04;;;;;;;113.70;58.23;;;1.00;99.90;;;;;;5084026;28;20044;-73
2022/12/09 12:04:36;;;;;;;112.80;61.08;;;1.00;99.90;;;;;;5093528;28;20126;-73
2022/12/09 12:07:14;;;;;;;88.40;51.83;;;1.00;99.90;;;;;;5076864;28;20119;-73
2022/12/09 12:10:26;;;;;;;152.73;65.67;;;1.00;99.90;;;;;;5093288;28;20054;-74
2022/12/09 12:12:59;;;;;;;91.10;51.77;;;1.10;99.90;;;;;;5076564;28;20055;-73
2022/12/09 12:15:46;;;;;;;102.20;55.03;;;1.10;99.90;;;;;;5080399;28;20089;-73
2022/12/09 12:18:18;;;;;;;91.70;52.50;;;1.20;99.90;;;;;;5092207;28;20056;-73
2022/12/09 12:21:01;;;;;;;101.57;52.57;;;1.20;99.90;;;;;;5067374;28;20623;-74
2022/12/09 12:23:39;;;;;;;110.60;54.40;;;1.20;99.90;;;;;;5090367;28;20079;-73
2022/12/09 12:26:07;;;;;;;131.60;56.40;;;1.20;99.90;;;;;;5093595;28;20526;-73
2022/12/09 12:29:12;;;;;;;148.97;62.73;;;1.20;99.90;;;;;;5083546;28;20064;-73
2022/12/09 12:32:11;;;;;;;162.03;61.90;;;1.20;99.90;;;;;;5067867;28;20055;-74
2022/12/09 12:34:56;;;;;;;146.83;62.47;;;1.30;99.90;;;;;;5076665;28;20040;-74
2022/12/09 12:37:33;;;;;;;129.87;56.87;;;1.30;99.90;;;;;;5096504;28;20325;-78
2022/12/09 12:40:02;;;;;;;145.13;62.23;;;1.30;99.90;;;;;;5081460;28;20048;-78
2022/12/09 12:42:40;;;;;;;164.70;63.20;;;1.30;99.90;;;;;;5090897;28;20126;-78
2022/12/09 12:48:56;;;;;;;140.53;61.10;;;1.40;99.90;;;;;;5094143;28;20066;-78
2022/12/09 12:51:28;;;;;;;108.13;55.30;;;1.40;99.90;;;;;;5092978;28;20056;-78